sensor_id;sensor_type;location;lat;lon;timestamp;temperature;humidity
7028;DHT22;3555;53.248;10.336;2023-10-13T00:02:10;13.40;99.90
7028;DHT22;3555;53.248;10.336;2023-10-13T00:04:39;13.40;99.90
7028;DHT22;3555;53.248;10.336;2023-10-13T00:07:07;13.40;99.90
7028;DHT22;3555;53.248;10.336;2023-10-13T00:09:35;13.40;99.90
7028;DHT22;3555;53.248;10.336;2023-10-13T00:12:03;13.50;99.90
7028;DHT22;3555;53.248;10.336;2023-10-13T00:14:35;13.40;99.90
7028;DHT22;3555;53.248;10.336;2023-10-13T00:17:04;13.40;99.90
7028;DHT22;3555;53.248;10.336;2023-10-13T00:19:34;13.30;99.90
7028;DHT22;3555;53.248;10.336;2023-10-13T00:22:11;13.20;99.90
7028;DHT22;3555;53.248;10.336;2023-10-13T00:24:42;13.30;99.90
7028;DHT22;3555;53.248;10.336;2023-10-13T00:27:11;13.40;99.90
7028;DHT22;3555;53.248;10.336;2023-10-13T00:29:55;13.40;99.90
7028;DHT22;3555;53.248;10.336;2023-10-13T00:32:41;13.40;99.90
7028;DHT22;3555;53.248;10.336;2023-10-13T00:35:10;13.50;99.90
7028;DHT22;3555;53.248;10.336;2023-10-13T00:37:50;13.50;99.90
7028;DHT22;3555;53.248;10.336;2023-10-13T00:40:19;13.50;99.90
7028;DHT22;3555;53.248;10.336;2023-10-13T00:43:07;13.60;99.90
7028;DHT22;3555;53.248;10.336;2023-10-13T00:45:50;13.50;99.90
7028;DHT22;3555;53.248;10.336;2023-10-13T00:48:23;13.60;99.90
7028;DHT22;3555;53.248;10.336;2023-10-13T00:50:55;13.60;99.90
7028;DHT22;3555;53.248;10.336;2023-10-13T00:53:25;13.70;99.90
7028;DHT22;3555;53.248;10.336;2023-10-13T00:55:52;13.60;99.90
7028;DHT22;3555;53.248;10.336;2023-10-13T00:58:22;14.00;99.90
7028;DHT22;3555;53.248;10.336;2023-10-13T01:00:50;13.60;99.90
7028;DHT22;3555;53.248;10.336;2023-10-13T01:03:23;13.60;99.90
7028;DHT22;3555;53.248;10.336;2023-10-13T01:05:53;13.50;99.90
7028;DHT22;3555;53.248;10.336;2023-10-13T01:08:32;13.60;99.90
7028;DHT22;3555;53.248;10.336;2023-10-13T01:11:00;13.70;99.90
7028;DHT22;3555;53.248;10.336;2023-10-13T01:13:27;13.60;99.90
7028;DHT22;3555;53.248;10.336;2023-10-13T01:15:57;13.60;99.90
7028;DHT22;3555;53.248;10.336;2023-10-13T01:18:28;13.70;99.90
7028;DHT22;3555;53.248;10.336;2023-10-13T01:20:54;13.70;99.90
7028;DHT22;3555;53.248;10.336;2023-10-13T01:23:26;13.60;99.90
7028;DHT22;3555;53.248;10.336;2023-10-13T01:25:54;13.70;99.90
7028;DHT22;3555;53.248;10.336;2023-10-13T01:28:21;13.80;99.90
7028;DHT22;3555;53.248;10.336;2023-10-13T01:30:48;13.70;99.90
7028;DHT22;3555;53.248;10.336;2023-10-13T01:33:16;13.80;99.90
7028;DHT22;3555;53.248;10.336;2023-10-13T01:35:42;13.80;99.90
7028;DHT22;3555;53.248;10.336;2023-10-13T01:38:13;13.90;99.90
7028;DHT22;3555;53.248;10.336;2023-10-13T01:40:40;13.80;99.90
7028;DHT22;3555;53.248;10.336;2023-10-13T01:43:08;13.90;99.90
7028;DHT22;3555;53.248;10.336;2023-10-13T01:45:37;13.90;99.90
7028;DHT22;3555;53.248;10.336;2023-10-13T01:48:15;13.90;99.90
7028;DHT22;3555;53.248;10.336;2023-10-13T01:50:42;14.00;99.90
7028;DHT22;3555;53.248;10.336;2023-10-13T01:53:13;13.80;99.90
7028;DHT22;3555;53.248;10.336;2023-10-13T01:55:41;13.90;99.90
7028;DHT22;3555;53.248;10.336;2023-10-13T01:58:10;13.90;99.90
7028;DHT22;3555;53.248;10.336;2023-10-13T02:00:41;13.90;99.90
7028;DHT22;3555;53.248;10.336;2023-10-13T02:03:08;13.90;99.90
7028;DHT22;3555;53.248;10.336;2023-10-13T02:05:41;13.90;99.90
7028;DHT22;3555;53.248;10.336;2023-10-13T02:08:13;13.80;99.90
7028;DHT22;3555;53.248;10.336;2023-10-13T02:10:44;13.80;99.90
7028;DHT22;3555;53.248;10.336;2023-10-13T02:13:13;13.80;99.90
7028;DHT22;3555;53.248;10.336;2023-10-13T02:15:43;13.90;99.90
7028;DHT22;3555;53.248;10.336;2023-10-13T02:18:11;13.80;99.90
7028;DHT22;3555;53.248;10.336;2023-10-13T02:20:38;13.80;99.90
7028;DHT22;3555;53.248;10.336;2023-10-13T02:23:09;13.80;99.90
7028;DHT22;3555;53.248;10.336;2023-10-13T02:25:37;13.80;99.90
7028;DHT22;3555;53.248;10.336;2023-10-13T02:28:10;13.70;99.90
7028;DHT22;3555;53.248;10.336;2023-10-13T02:30:41;13.90;99.90
7028;DHT22;3555;53.248;10.336;2023-10-13T02:33:13;14.00;99.90
7028;DHT22;3555;53.248;10.336;2023-10-13T02:35:40;13.90;99.90
7028;DHT22;3555;53.248;10.336;2023-10-13T02:38:16;14.00;99.90
7028;DHT22;3555;53.248;10.336;2023-10-13T02:40:52;14.00;99.90
7028;DHT22;3555;53.248;10.336;2023-10-13T02:43:21;14.10;99.90
7028;DHT22;3555;53.248;10.336;2023-10-13T02:45:54;14.10;99.90
7028;DHT22;3555;53.248;10.336;2023-10-13T02:48:24;14.20;99.90
7028;DHT22;3555;53.248;10.336;2023-10-13T02:50:57;14.20;99.90
7028;DHT22;3555;53.248;10.336;2023-10-13T02:53:23;14.20;99.90
7028;DHT22;3555;53.248;10.336;2023-10-13T02:55:54;14.20;99.90
7028;DHT22;3555;53.248;10.336;2023-10-13T02:58:22;14.10;99.90
7028;DHT22;3555;53.248;10.336;2023-10-13T03:01:06;14.20;99.90
7028;DHT22;3555;53.248;10.336;2023-10-13T03:03:43;14.10;99.90
7028;DHT22;3555;53.248;10.336;2023-10-13T03:06:13;14.10;99.90
7028;DHT22;3555;53.248;10.336;2023-10-13T03:08:40;14.10;99.90
7028;DHT22;3555;53.248;10.336;2023-10-13T03:11:09;14.10;99.90
7028;DHT22;3555;53.248;10.336;2023-10-13T03:13:37;14.10;99.90
7028;DHT22;3555;53.248;10.336;2023-10-13T03:16:13;14.10;99.90
7028;DHT22;3555;53.248;10.336;2023-10-13T03:18:42;14.10;99.90
7028;DHT22;3555;53.248;10.336;2023-10-13T03:21:17;14.20;99.90
7028;DHT22;3555;53.248;10.336;2023-10-13T03:23:57;14.20;99.90
7028;DHT22;3555;53.248;10.336;2023-10-13T03:26:30;14.30;99.90
7028;DHT22;3555;53.248;10.336;2023-10-13T03:29:02;14.30;99.90
7028;DHT22;3555;53.248;10.336;2023-10-13T03:31:33;14.40;99.90
7028;DHT22;3555;53.248;10.336;2023-10-13T03:34:04;14.40;99.90
7028;DHT22;3555;53.248;10.336;2023-10-13T03:36:34;14.50;99.90
7028;DHT22;3555;53.248;10.336;2023-10-13T03:39:19;14.50;99.90
7028;DHT22;3555;53.248;10.336;2023-10-13T03:41:48;14.60;99.90
7028;DHT22;3555;53.248;10.336;2023-10-13T03:44:20;14.60;99.90
7028;DHT22;3555;53.248;10.336;2023-10-13T03:46:48;14.60;99.90
7028;DHT22;3555;53.248;10.336;2023-10-13T03:49:15;14.70;99.90
7028;DHT22;3555;53.248;10.336;2023-10-13T03:51:47;14.80;99.90
7028;DHT22;3555;53.248;10.336;2023-10-13T03:54:14;14.70;99.90
7028;DHT22;3555;53.248;10.336;2023-10-13T03:56:43;14.80;99.90
7028;DHT22;3555;53.248;10.336;2023-10-13T03:59:11;14.90;99.90
7028;DHT22;3555;53.248;10.336;2023-10-13T04:01:50;15.00;99.90
7028;DHT22;3555;53.248;10.336;2023-10-13T04:04:25;15.10;99.90
7028;DHT22;3555;53.248;10.336;2023-10-13T04:07:13;14.90;99.90
7028;DHT22;3555;53.248;10.336;2023-10-13T04:09:59;15.00;99.90
7028;DHT22;3555;53.248;10.336;2023-10-13T04:12:43;15.00;99.90
7028;DHT22;3555;53.248;10.336;2023-10-13T04:15:27;14.80;99.90
7028;DHT22;3555;53.248;10.336;2023-10-13T04:18:04;15.00;99.90
7028;DHT22;3555;53.248;10.336;2023-10-13T04:20:40;15.00;99.90
7028;DHT22;3555;53.248;10.336;2023-10-13T04:23:12;15.10;99.90
7028;DHT22;3555;53.248;10.336;2023-10-13T04:25:45;15.10;99.90
7028;DHT22;3555;53.248;10.336;2023-10-13T04:28:28;15.10;99.90
7028;DHT22;3555;53.248;10.336;2023-10-13T04:31:03;15.20;99.90
7028;DHT22;3555;53.248;10.336;2023-10-13T04:33:41;15.20;99.90
7028;DHT22;3555;53.248;10.336;2023-10-13T04:36:22;15.30;99.90
7028;DHT22;3555;53.248;10.336;2023-10-13T04:39:02;15.30;99.90
7028;DHT22;3555;53.248;10.336;2023-10-13T04:41:36;15.40;99.90
7028;DHT22;3555;53.248;10.336;2023-10-13T04:44:05;15.40;99.90
7028;DHT22;3555;53.248;10.336;2023-10-13T04:46:52;15.40;99.90
7028;DHT22;3555;53.248;10.336;2023-10-13T04:49:39;15.40;99.90
7028;DHT22;3555;53.248;10.336;2023-10-13T04:52:17;15.40;99.90
7028;DHT22;3555;53.248;10.336;2023-10-13T04:55:06;15.40;99.90
7028;DHT22;3555;53.248;10.336;2023-10-13T04:57:53;15.40;99.90
7028;DHT22;3555;53.248;10.336;2023-10-13T05:00:36;15.50;99.90
7028;DHT22;3555;53.248;10.336;2023-10-13T05:03:41;15.50;99.90
7028;DHT22;3555;53.248;10.336;2023-10-13T05:06:35;15.50;99.90
7028;DHT22;3555;53.248;10.336;2023-10-13T05:09:20;15.50;99.90
7028;DHT22;3555;53.248;10.336;2023-10-13T05:12:04;15.60;99.90
7028;DHT22;3555;53.248;10.336;2023-10-13T05:14:48;15.50;99.90
7028;DHT22;3555;53.248;10.336;2023-10-13T05:17:33;15.60;99.90
7028;DHT22;3555;53.248;10.336;2023-10-13T05:20:17;15.60;99.90
7028;DHT22;3555;53.248;10.336;2023-10-13T05:23:03;15.60;99.90
7028;DHT22;3555;53.248;10.336;2023-10-13T05:25:47;15.60;99.90
7028;DHT22;3555;53.248;10.336;2023-10-13T05:28:32;15.60;99.90
7028;DHT22;3555;53.248;10.336;2023-10-13T05:31:21;15.50;99.90
7028;DHT22;3555;53.248;10.336;2023-10-13T05:34:05;15.60;99.90
7028;DHT22;3555;53.248;10.336;2023-10-13T05:36:49;15.60;99.90
7028;DHT22;3555;53.248;10.336;2023-10-13T05:39:43;15.60;99.90
7028;DHT22;3555;53.248;10.336;2023-10-13T05:42:28;15.60;99.90
7028;DHT22;3555;53.248;10.336;2023-10-13T05:45:12;15.60;99.90
7028;DHT22;3555;53.248;10.336;2023-10-13T05:48:06;15.60;99.90
7028;DHT22;3555;53.248;10.336;2023-10-13T05:50:39;15.70;99.90
7028;DHT22;3555;53.248;10.336;2023-10-13T05:53:44;15.60;99.90
7028;DHT22;3555;53.248;10.336;2023-10-13T05:56:29;15.70;99.90
7028;DHT22;3555;53.248;10.336;2023-10-13T05:59:14;15.70;99.90
7028;DHT22;3555;53.248;10.336;2023-10-13T06:01:58;15.70;99.90
7028;DHT22;3555;53.248;10.336;2023-10-13T06:04:42;15.70;99.90
7028;DHT22;3555;53.248;10.336;2023-10-13T06:07:26;15.70;99.90
7028;DHT22;3555;53.248;10.336;2023-10-13T06:10:10;15.80;99.90
7028;DHT22;3555;53.248;10.336;2023-10-13T06:12:56;15.80;99.90
7028;DHT22;3555;53.248;10.336;2023-10-13T06:15:40;15.80;99.90
7028;DHT22;3555;53.248;10.336;2023-10-13T06:18:24;15.80;99.90
7028;DHT22;3555;53.248;10.336;2023-10-13T06:21:08;15.90;99.90
7028;DHT22;3555;53.248;10.336;2023-10-13T06:23:53;15.90;99.90
7028;DHT22;3555;53.248;10.336;2023-10-13T06:26:37;15.90;99.90
7028;DHT22;3555;53.248;10.336;2023-10-13T06:29:22;15.90;99.90
7028;DHT22;3555;53.248;10.336;2023-10-13T06:31:50;15.90;99.90
7028;DHT22;3555;53.248;10.336;2023-10-13T06:34:17;15.90;99.90
7028;DHT22;3555;53.248;10.336;2023-10-13T06:36:46;16.00;99.90
7028;DHT22;3555;53.248;10.336;2023-10-13T06:39:13;15.90;99.90
7028;DHT22;3555;53.248;10.336;2023-10-13T06:42:01;15.90;99.90
7028;DHT22;3555;53.248;10.336;2023-10-13T06:44:30;15.90;99.90
7028;DHT22;3555;53.248;10.336;2023-10-13T06:46:58;15.90;99.90
7028;DHT22;3555;53.248;10.336;2023-10-13T06:49:29;16.00;99.90
7028;DHT22;3555;53.248;10.336;2023-10-13T06:51:58;16.00;99.90
7028;DHT22;3555;53.248;10.336;2023-10-13T06:54:26;16.00;99.90
7028;DHT22;3555;53.248;10.336;2023-10-13T06:56:54;16.00;99.90
7028;DHT22;3555;53.248;10.336;2023-10-13T06:59:21;15.90;99.90
7028;DHT22;3555;53.248;10.336;2023-10-13T07:01:53;16.00;99.90
7028;DHT22;3555;53.248;10.336;2023-10-13T07:04:26;16.00;99.90
7028;DHT22;3555;53.248;10.336;2023-10-13T07:06:53;16.00;99.90
7028;DHT22;3555;53.248;10.336;2023-10-13T07:09:20;16.00;99.90
7028;DHT22;3555;53.248;10.336;2023-10-13T07:12:06;16.00;99.90
7028;DHT22;3555;53.248;10.336;2023-10-13T07:14:38;16.00;99.90
7028;DHT22;3555;53.248;10.336;2023-10-13T07:17:07;16.00;99.90
7028;DHT22;3555;53.248;10.336;2023-10-13T07:19:34;16.00;99.90
7028;DHT22;3555;53.248;10.336;2023-10-13T07:22:10;15.90;99.90
7028;DHT22;3555;53.248;10.336;2023-10-13T07:24:46;16.00;99.90
7028;DHT22;3555;53.248;10.336;2023-10-13T07:27:15;16.00;99.90
7028;DHT22;3555;53.248;10.336;2023-10-13T07:29:48;16.10;99.90
7028;DHT22;3555;53.248;10.336;2023-10-13T07:32:23;16.00;99.90
7028;DHT22;3555;53.248;10.336;2023-10-13T07:34:54;16.10;99.90
7028;DHT22;3555;53.248;10.336;2023-10-13T07:37:23;16.10;99.90
7028;DHT22;3555;53.248;10.336;2023-10-13T07:39:54;16.10;99.90
7028;DHT22;3555;53.248;10.336;2023-10-13T07:42:23;16.00;99.90
7028;DHT22;3555;53.248;10.336;2023-10-13T07:44:56;16.00;99.90
7028;DHT22;3555;53.248;10.336;2023-10-13T07:47:25;16.00;99.90
7028;DHT22;3555;53.248;10.336;2023-10-13T07:49:54;16.00;99.90
7028;DHT22;3555;53.248;10.336;2023-10-13T07:52:22;16.10;99.90
7028;DHT22;3555;53.248;10.336;2023-10-13T07:55:01;16.10;99.90
7028;DHT22;3555;53.248;10.336;2023-10-13T07:57:37;16.10;99.90
7028;DHT22;3555;53.248;10.336;2023-10-13T08:00:19;16.10;99.90
7028;DHT22;3555;53.248;10.336;2023-10-13T08:02:57;16.00;99.90
7028;DHT22;3555;53.248;10.336;2023-10-13T08:05:43;16.10;99.90
7028;DHT22;3555;53.248;10.336;2023-10-13T08:08:23;16.10;99.90
7028;DHT22;3555;53.248;10.336;2023-10-13T08:10:51;16.00;99.90
7028;DHT22;3555;53.248;10.336;2023-10-13T08:13:21;16.00;99.90
7028;DHT22;3555;53.248;10.336;2023-10-13T08:15:49;16.10;99.90
7028;DHT22;3555;53.248;10.336;2023-10-13T08:18:19;16.10;99.90
7028;DHT22;3555;53.248;10.336;2023-10-13T08:20:56;16.10;99.90
7028;DHT22;3555;53.248;10.336;2023-10-13T08:23:28;16.10;99.90
7028;DHT22;3555;53.248;10.336;2023-10-13T08:26:21;16.00;99.90
7028;DHT22;3555;53.248;10.336;2023-10-13T08:29:04;16.00;99.90
7028;DHT22;3555;53.248;10.336;2023-10-13T08:31:45;16.00;99.90
7028;DHT22;3555;53.248;10.336;2023-10-13T08:34:31;16.00;99.90
7028;DHT22;3555;53.248;10.336;2023-10-13T08:37:04;15.90;99.90
7028;DHT22;3555;53.248;10.336;2023-10-13T08:39:45;16.00;99.90
7028;DHT22;3555;53.248;10.336;2023-10-13T08:42:40;15.90;99.90
7028;DHT22;3555;53.248;10.336;2023-10-13T08:45:18;15.90;99.90
7028;DHT22;3555;53.248;10.336;2023-10-13T08:48:08;15.90;99.90
7028;DHT22;3555;53.248;10.336;2023-10-13T08:50:42;15.90;99.90
7028;DHT22;3555;53.248;10.336;2023-10-13T08:53:15;15.80;99.90
7028;DHT22;3555;53.248;10.336;2023-10-13T08:55:54;15.80;99.90
7028;DHT22;3555;53.248;10.336;2023-10-13T08:58:30;15.90;99.90
7028;DHT22;3555;53.248;10.336;2023-10-13T09:01:32;15.90;99.90
7028;DHT22;3555;53.248;10.336;2023-10-13T09:04:04;15.80;99.90
7028;DHT22;3555;53.248;10.336;2023-10-13T09:06:50;15.90;99.90
7028;DHT22;3555;53.248;10.336;2023-10-13T09:09:33;16.00;99.90
7028;DHT22;3555;53.248;10.336;2023-10-13T09:12:02;15.90;99.90
7028;DHT22;3555;53.248;10.336;2023-10-13T09:14:36;16.00;99.90
7028;DHT22;3555;53.248;10.336;2023-10-13T09:17:08;16.00;99.90
7028;DHT22;3555;53.248;10.336;2023-10-13T09:19:47;16.10;99.90
7028;DHT22;3555;53.248;10.336;2023-10-13T09:22:22;16.10;99.90
7028;DHT22;3555;53.248;10.336;2023-10-13T09:24:55;16.20;99.90
7028;DHT22;3555;53.248;10.336;2023-10-13T09:27:25;16.20;99.90
7028;DHT22;3555;53.248;10.336;2023-10-13T09:29:56;16.20;99.90
7028;DHT22;3555;53.248;10.336;2023-10-13T09:32:23;16.30;99.90
7028;DHT22;3555;53.248;10.336;2023-10-13T09:34:49;16.30;99.90
7028;DHT22;3555;53.248;10.336;2023-10-13T09:37:17;16.30;99.90
7028;DHT22;3555;53.248;10.336;2023-10-13T09:39:49;16.40;99.90
7028;DHT22;3555;53.248;10.336;2023-10-13T09:42:20;16.50;99.90
7028;DHT22;3555;53.248;10.336;2023-10-13T09:44:49;16.60;99.90
7028;DHT22;3555;53.248;10.336;2023-10-13T09:47:22;16.60;99.90
7028;DHT22;3555;53.248;10.336;2023-10-13T09:49:59;16.70;99.90
7028;DHT22;3555;53.248;10.336;2023-10-13T09:52:31;16.80;99.90
7028;DHT22;3555;53.248;10.336;2023-10-13T09:55:13;16.80;99.90
7028;DHT22;3555;53.248;10.336;2023-10-13T09:57:47;16.90;99.90
7028;DHT22;3555;53.248;10.336;2023-10-13T10:00:17;17.00;99.90
7028;DHT22;3555;53.248;10.336;2023-10-13T10:03:10;16.90;99.90
7028;DHT22;3555;53.248;10.336;2023-10-13T10:05:56;16.90;99.90
7028;DHT22;3555;53.248;10.336;2023-10-13T10:08:29;17.00;99.90
7028;DHT22;3555;53.248;10.336;2023-10-13T10:11:32;17.00;99.90
7028;DHT22;3555;53.248;10.336;2023-10-13T10:14:10;17.00;99.90
7028;DHT22;3555;53.248;10.336;2023-10-13T10:16:43;17.00;99.90
7028;DHT22;3555;53.248;10.336;2023-10-13T10:19:14;17.10;99.90
7028;DHT22;3555;53.248;10.336;2023-10-13T10:21:41;17.10;99.90
7028;DHT22;3555;53.248;10.336;2023-10-13T10:24:15;17.10;99.90
7028;DHT22;3555;53.248;10.336;2023-10-13T10:26:54;17.10;99.90
7028;DHT22;3555;53.248;10.336;2023-10-13T10:29:20;17.20;99.90
7028;DHT22;3555;53.248;10.336;2023-10-13T10:31:48;17.20;99.90
7028;DHT22;3555;53.248;10.336;2023-10-13T10:34:17;17.30;99.90
7028;DHT22;3555;53.248;10.336;2023-10-13T10:36:47;17.30;99.90
7028;DHT22;3555;53.248;10.336;2023-10-13T10:39:14;17.30;99.90
7028;DHT22;3555;53.248;10.336;2023-10-13T10:41:43;17.40;99.90
7028;DHT22;3555;53.248;10.336;2023-10-13T10:44:19;17.40;99.90
7028;DHT22;3555;53.248;10.336;2023-10-13T10:47:09;17.50;99.90
7028;DHT22;3555;53.248;10.336;2023-10-13T10:49:37;17.60;99.90
7028;DHT22;3555;53.248;10.336;2023-10-13T10:52:10;17.60;99.90
7028;DHT22;3555;53.248;10.336;2023-10-13T10:54:44;17.70;99.90
7028;DHT22;3555;53.248;10.336;2023-10-13T10:57:17;17.80;99.90
7028;DHT22;3555;53.248;10.336;2023-10-13T10:59:45;17.90;99.90
7028;DHT22;3555;53.248;10.336;2023-10-13T11:02:12;18.10;99.90
7028;DHT22;3555;53.248;10.336;2023-10-13T11:04:44;18.20;99.90
7028;DHT22;3555;53.248;10.336;2023-10-13T11:07:26;18.30;99.90
7028;DHT22;3555;53.248;10.336;2023-10-13T11:09:54;18.30;99.90
7028;DHT22;3555;53.248;10.336;2023-10-13T11:12:32;18.40;99.90
7028;DHT22;3555;53.248;10.336;2023-10-13T11:15:03;18.40;99.90
7028;DHT22;3555;53.248;10.336;2023-10-13T11:17:38;18.40;99.90
7028;DHT22;3555;53.248;10.336;2023-10-13T11:20:11;18.40;99.90
7028;DHT22;3555;53.248;10.336;2023-10-13T11:22:46;18.50;99.90
7028;DHT22;3555;53.248;10.336;2023-10-13T11:25:21;18.60;99.90
7028;DHT22;3555;53.248;10.336;2023-10-13T11:27:49;18.60;99.90
7028;DHT22;3555;53.248;10.336;2023-10-13T11:30:26;18.60;99.90
7028;DHT22;3555;53.248;10.336;2023-10-13T11:33:08;18.70;99.90
7028;DHT22;3555;53.248;10.336;2023-10-13T11:35:36;18.70;99.90
7028;DHT22;3555;53.248;10.336;2023-10-13T11:38:21;18.80;99.90
7028;DHT22;3555;53.248;10.336;2023-10-13T11:40:52;18.80;99.90
7028;DHT22;3555;53.248;10.336;2023-10-13T11:43:38;18.90;99.90
7028;DHT22;3555;53.248;10.336;2023-10-13T11:46:36;19.00;99.90
7028;DHT22;3555;53.248;10.336;2023-10-13T11:49:20;19.10;99.90
7028;DHT22;3555;53.248;10.336;2023-10-13T11:51:57;19.10;99.90
7028;DHT22;3555;53.248;10.336;2023-10-13T11:54:34;19.20;99.90
7028;DHT22;3555;53.248;10.336;2023-10-13T11:57:07;19.30;99.90
7028;DHT22;3555;53.248;10.336;2023-10-13T11:59:34;19.30;99.90
7028;DHT22;3555;53.248;10.336;2023-10-13T12:02:12;19.40;99.90
7028;DHT22;3555;53.248;10.336;2023-10-13T12:04:56;19.50;99.90
7028;DHT22;3555;53.248;10.336;2023-10-13T12:07:25;19.60;99.90
7028;DHT22;3555;53.248;10.336;2023-10-13T12:10:08;19.60;99.90
7028;DHT22;3555;53.248;10.336;2023-10-13T12:12:42;19.60;99.90
7028;DHT22;3555;53.248;10.336;2023-10-13T12:15:12;19.70;99.90
7028;DHT22;3555;53.248;10.336;2023-10-13T12:17:53;19.70;99.90
7028;DHT22;3555;53.248;10.336;2023-10-13T12:20:23;19.70;99.90
7028;DHT22;3555;53.248;10.336;2023-10-13T12:22:59;19.90;99.90
7028;DHT22;3555;53.248;10.336;2023-10-13T12:25:37;20.10;99.90
7028;DHT22;3555;53.248;10.336;2023-10-13T12:28:21;20.30;99.90
7028;DHT22;3555;53.248;10.336;2023-10-13T12:30:49;20.40;99.90
7028;DHT22;3555;53.248;10.336;2023-10-13T12:33:19;20.50;99.90
7028;DHT22;3555;53.248;10.336;2023-10-13T12:35:58;20.50;99.90
7028;DHT22;3555;53.248;10.336;2023-10-13T12:38:35;20.50;99.90
7028;DHT22;3555;53.248;10.336;2023-10-13T12:41:37;20.40;99.90
7028;DHT22;3555;53.248;10.336;2023-10-13T12:44:21;20.40;99.90
7028;DHT22;3555;53.248;10.336;2023-10-13T12:47:06;20.40;99.90
7028;DHT22;3555;53.248;10.336;2023-10-13T12:49:51;20.60;99.90
7028;DHT22;3555;53.248;10.336;2023-10-13T12:52:25;20.60;99.90
7028;DHT22;3555;53.248;10.336;2023-10-13T12:54:52;20.60;99.90
7028;DHT22;3555;53.248;10.336;2023-10-13T12:57:32;20.60;99.90
7028;DHT22;3555;53.248;10.336;2023-10-13T12:59:59;20.60;99.90
7028;DHT22;3555;53.248;10.336;2023-10-13T13:02:41;20.60;99.90
7028;DHT22;3555;53.248;10.336;2023-10-13T13:05:10;20.50;99.90
7028;DHT22;3555;53.248;10.336;2023-10-13T13:07:38;20.50;99.90
7028;DHT22;3555;53.248;10.336;2023-10-13T13:10:12;20.50;99.90
7028;DHT22;3555;53.248;10.336;2023-10-13T13:12:39;20.50;99.90
7028;DHT22;3555;53.248;10.336;2023-10-13T13:15:07;20.50;99.90
7028;DHT22;3555;53.248;10.336;2023-10-13T13:17:35;20.60;99.90
7028;DHT22;3555;53.248;10.336;2023-10-13T13:20:05;20.60;99.90
7028;DHT22;3555;53.248;10.336;2023-10-13T13:22:38;20.70;99.90
7028;DHT22;3555;53.248;10.336;2023-10-13T13:25:06;20.70;99.90
7028;DHT22;3555;53.248;10.336;2023-10-13T13:27:35;20.70;99.90
7028;DHT22;3555;53.248;10.336;2023-10-13T13:30:03;20.70;99.90
7028;DHT22;3555;53.248;10.336;2023-10-13T13:32:38;20.60;99.90
7028;DHT22;3555;53.248;10.336;2023-10-13T13:35:06;20.70;99.90
7028;DHT22;3555;53.248;10.336;2023-10-13T13:37:34;20.70;99.90
7028;DHT22;3555;53.248;10.336;2023-10-13T13:40:06;20.80;99.90
7028;DHT22;3555;53.248;10.336;2023-10-13T13:42:40;20.70;99.90
7028;DHT22;3555;53.248;10.336;2023-10-13T13:45:12;20.70;99.90
7028;DHT22;3555;53.248;10.336;2023-10-13T13:47:47;20.60;99.90
7028;DHT22;3555;53.248;10.336;2023-10-13T13:50:19;20.60;99.90
7028;DHT22;3555;53.248;10.336;2023-10-13T13:52:50;20.60;99.90
7028;DHT22;3555;53.248;10.336;2023-10-13T13:55:20;20.60;99.90
7028;DHT22;3555;53.248;10.336;2023-10-13T13:57:47;20.60;99.90
7028;DHT22;3555;53.248;10.336;2023-10-13T14:00:16;20.50;99.90
7028;DHT22;3555;53.248;10.336;2023-10-13T14:02:48;20.60;99.90
7028;DHT22;3555;53.248;10.336;2023-10-13T14:05:16;20.60;99.90
7028;DHT22;3555;53.248;10.336;2023-10-13T14:07:43;20.70;99.90
7028;DHT22;3555;53.248;10.336;2023-10-13T14:10:15;20.60;99.90
7028;DHT22;3555;53.248;10.336;2023-10-13T14:13:00;20.50;99.90
7028;DHT22;3555;53.248;10.336;2023-10-13T14:15:33;20.50;99.90
7028;DHT22;3555;53.248;10.336;2023-10-13T14:18:06;20.50;99.90
7028;DHT22;3555;53.248;10.336;2023-10-13T14:20:38;20.50;99.90
7028;DHT22;3555;53.248;10.336;2023-10-13T14:23:06;20.50;99.90
7028;DHT22;3555;53.248;10.336;2023-10-13T14:25:37;20.50;99.90
7028;DHT22;3555;53.248;10.336;2023-10-13T14:28:11;20.50;99.90
7028;DHT22;3555;53.248;10.336;2023-10-13T14:30:43;20.50;99.90
7028;DHT22;3555;53.248;10.336;2023-10-13T14:33:09;20.50;99.90
7028;DHT22;3555;53.248;10.336;2023-10-13T14:35:37;20.50;99.90
7028;DHT22;3555;53.248;10.336;2023-10-13T14:38:04;20.60;99.90
7028;DHT22;3555;53.248;10.336;2023-10-13T14:40:32;20.60;99.90
7028;DHT22;3555;53.248;10.336;2023-10-13T14:42:59;20.60;99.90
7028;DHT22;3555;53.248;10.336;2023-10-13T14:45:27;20.60;99.90
7028;DHT22;3555;53.248;10.336;2023-10-13T14:47:54;20.60;99.90
7028;DHT22;3555;53.248;10.336;2023-10-13T14:50:21;20.70;99.90
7028;DHT22;3555;53.248;10.336;2023-10-13T14:52:48;20.60;99.90
7028;DHT22;3555;53.248;10.336;2023-10-13T14:55:16;20.60;99.90
7028;DHT22;3555;53.248;10.336;2023-10-13T14:57:47;20.60;99.90
7028;DHT22;3555;53.248;10.336;2023-10-13T15:00:16;20.60;99.90
7028;DHT22;3555;53.248;10.336;2023-10-13T15:02:51;20.60;99.90
7028;DHT22;3555;53.248;10.336;2023-10-13T15:05:19;20.60;99.90
7028;DHT22;3555;53.248;10.336;2023-10-13T15:07:46;20.60;99.90
7028;DHT22;3555;53.248;10.336;2023-10-13T15:10:13;20.60;99.90
7028;DHT22;3555;53.248;10.336;2023-10-13T15:12:42;20.60;99.90
7028;DHT22;3555;53.248;10.336;2023-10-13T15:15:10;20.60;99.90
7028;DHT22;3555;53.248;10.336;2023-10-13T15:17:41;20.70;99.90
7028;DHT22;3555;53.248;10.336;2023-10-13T15:20:11;20.70;99.90
7028;DHT22;3555;53.248;10.336;2023-10-13T15:22:42;20.70;99.90
7028;DHT22;3555;53.248;10.336;2023-10-13T15:25:09;20.80;99.90
7028;DHT22;3555;53.248;10.336;2023-10-13T15:27:44;20.80;99.90
7028;DHT22;3555;53.248;10.336;2023-10-13T15:30:16;20.70;99.90
7028;DHT22;3555;53.248;10.336;2023-10-13T15:32:51;20.70;99.90
7028;DHT22;3555;53.248;10.336;2023-10-13T15:35:20;20.70;99.90
7028;DHT22;3555;53.248;10.336;2023-10-13T15:37:54;20.60;99.90
7028;DHT22;3555;53.248;10.336;2023-10-13T15:40:21;20.60;99.90
7028;DHT22;3555;53.248;10.336;2023-10-13T15:42:49;20.60;99.90
7028;DHT22;3555;53.248;10.336;2023-10-13T15:45:16;20.60;99.90
7028;DHT22;3555;53.248;10.336;2023-10-13T15:47:44;20.60;99.90
7028;DHT22;3555;53.248;10.336;2023-10-13T15:50:12;20.70;99.90
7028;DHT22;3555;53.248;10.336;2023-10-13T15:52:42;20.60;99.90
7028;DHT22;3555;53.248;10.336;2023-10-13T15:55:15;20.60;99.90
7028;DHT22;3555;53.248;10.336;2023-10-13T15:57:43;20.60;99.90
7028;DHT22;3555;53.248;10.336;2023-10-13T16:00:11;20.60;99.90
7028;DHT22;3555;53.248;10.336;2023-10-13T16:02:51;20.70;99.90
7028;DHT22;3555;53.248;10.336;2023-10-13T16:05:20;20.70;99.90
7028;DHT22;3555;53.248;10.336;2023-10-13T16:07:50;20.70;99.90
7028;DHT22;3555;53.248;10.336;2023-10-13T16:10:20;20.80;99.90
7028;DHT22;3555;53.248;10.336;2023-10-13T16:12:47;20.80;99.90
7028;DHT22;3555;53.248;10.336;2023-10-13T16:15:14;20.80;99.90
7028;DHT22;3555;53.248;10.336;2023-10-13T16:17:41;20.80;99.90
7028;DHT22;3555;53.248;10.336;2023-10-13T16:20:10;20.80;99.90
7028;DHT22;3555;53.248;10.336;2023-10-13T16:22:43;20.80;99.90
7028;DHT22;3555;53.248;10.336;2023-10-13T16:25:12;20.80;99.90
7028;DHT22;3555;53.248;10.336;2023-10-13T16:27:40;20.70;99.90
7028;DHT22;3555;53.248;10.336;2023-10-13T16:30:12;20.70;99.90